sensor_id;sensor_type;location;lat;lon;timestamp;P1;durP1;ratioP1;P2;durP2;ratioP2
46643;SDS011;32371;51.032;5.816;2023-09-07T00:00:33;7.05;;;3.70;;
46643;SDS011;32371;51.032;5.816;2023-09-07T00:02:59;5.68;;;2.90;;
46643;SDS011;32371;51.032;5.816;2023-09-07T00:05:25;9.73;;;4.03;;
46643;SDS011;32371;51.032;5.816;2023-09-07T00:07:50;4.57;;;2.75;;
46643;SDS011;32371;51.032;5.816;2023-09-07T00:10:16;4.53;;;2.75;;
46643;SDS011;32371;51.032;5.816;2023-09-07T00:12:42;5.05;;;3.33;;
46643;SDS011;32371;51.032;5.816;2023-09-07T00:15:08;6.72;;;3.17;;
46643;SDS011;32371;51.032;5.816;2023-09-07T00:17:35;5.95;;;2.80;;
46643;SDS011;32371;51.032;5.816;2023-09-07T00:20:01;7.15;;;3.30;;
46643;SDS011;32371;51.032;5.816;2023-09-07T00:22:34;8.30;;;3.63;;
46643;SDS011;32371;51.032;5.816;2023-09-07T00:24:59;7.05;;;3.67;;
46643;SDS011;32371;51.032;5.816;2023-09-07T00:27:25;5.30;;;2.90;;
46643;SDS011;32371;51.032;5.816;2023-09-07T00:29:50;7.15;;;4.10;;
46643;SDS011;32371;51.032;5.816;2023-09-07T00:32:16;4.70;;;3.05;;
46643;SDS011;32371;51.032;5.816;2023-09-07T00:34:42;4.20;;;2.72;;
46643;SDS011;32371;51.032;5.816;2023-09-07T00:37:07;7.53;;;2.72;;
46643;SDS011;32371;51.032;5.816;2023-09-07T00:39:32;6.22;;;2.83;;
46643;SDS011;32371;51.032;5.816;2023-09-07T00:41:58;5.00;;;3.10;;
46643;SDS011;32371;51.032;5.816;2023-09-07T00:44:23;4.80;;;3.20;;
46643;SDS011;32371;51.032;5.816;2023-09-07T00:46:49;5.45;;;3.08;;
46643;SDS011;32371;51.032;5.816;2023-09-07T00:49:14;10.05;;;3.70;;
46643;SDS011;32371;51.032;5.816;2023-09-07T00:51:40;3.75;;;2.45;;
46643;SDS011;32371;51.032;5.816;2023-09-07T00:54:05;3.90;;;2.90;;
46643;SDS011;32371;51.032;5.816;2023-09-07T00:56:31;9.38;;;3.80;;
46643;SDS011;32371;51.032;5.816;2023-09-07T00:58:56;5.28;;;3.10;;
46643;SDS011;32371;51.032;5.816;2023-09-07T01:01:25;7.32;;;2.83;;
46643;SDS011;32371;51.032;5.816;2023-09-07T01:03:51;4.28;;;3.30;;
46643;SDS011;32371;51.032;5.816;2023-09-07T01:06:25;5.38;;;3.22;;
46643;SDS011;32371;51.032;5.816;2023-09-07T01:08:55;6.75;;;3.90;;
46643;SDS011;32371;51.032;5.816;2023-09-07T01:11:23;6.63;;;2.72;;
46643;SDS011;32371;51.032;5.816;2023-09-07T01:13:48;4.75;;;2.80;;
46643;SDS011;32371;51.032;5.816;2023-09-07T01:16:15;4.85;;;2.78;;
46643;SDS011;32371;51.032;5.816;2023-09-07T01:18:40;6.35;;;2.95;;
46643;SDS011;32371;51.032;5.816;2023-09-07T01:21:06;4.35;;;3.28;;
46643;SDS011;32371;51.032;5.816;2023-09-07T01:23:36;7.32;;;3.15;;
46643;SDS011;32371;51.032;5.816;2023-09-07T01:26:02;3.58;;;2.67;;
46643;SDS011;32371;51.032;5.816;2023-09-07T01:28:28;7.50;;;3.10;;
46643;SDS011;32371;51.032;5.816;2023-09-07T01:30:54;3.88;;;2.58;;
46643;SDS011;32371;51.032;5.816;2023-09-07T01:33:19;5.93;;;3.10;;
46643;SDS011;32371;51.032;5.816;2023-09-07T01:35:44;4.35;;;3.20;;
46643;SDS011;32371;51.032;5.816;2023-09-07T01:38:10;4.22;;;2.97;;
46643;SDS011;32371;51.032;5.816;2023-09-07T01:40:36;6.22;;;3.45;;
46643;SDS011;32371;51.032;5.816;2023-09-07T01:43:02;4.55;;;2.63;;
46643;SDS011;32371;51.032;5.816;2023-09-07T01:45:27;6.20;;;3.33;;
46643;SDS011;32371;51.032;5.816;2023-09-07T01:47:52;4.25;;;2.83;;
46643;SDS011;32371;51.032;5.816;2023-09-07T01:50:18;4.70;;;3.05;;
46643;SDS011;32371;51.032;5.816;2023-09-07T01:52:45;5.13;;;3.00;;
46643;SDS011;32371;51.032;5.816;2023-09-07T01:55:13;7.97;;;3.58;;
46643;SDS011;32371;51.032;5.816;2023-09-07T01:57:39;5.97;;;3.13;;
46643;SDS011;32371;51.032;5.816;2023-09-07T02:00:05;6.38;;;3.88;;
46643;SDS011;32371;51.032;5.816;2023-09-07T02:02:31;7.53;;;3.72;;
46643;SDS011;32371;51.032;5.816;2023-09-07T02:04:56;6.15;;;3.20;;
46643;SDS011;32371;51.032;5.816;2023-09-07T02:07:22;4.97;;;2.83;;
46643;SDS011;32371;51.032;5.816;2023-09-07T02:09:47;4.05;;;2.65;;
46643;SDS011;32371;51.032;5.816;2023-09-07T02:12:12;4.18;;;2.85;;
46643;SDS011;32371;51.032;5.816;2023-09-07T02:14:38;4.05;;;3.00;;
46643;SDS011;32371;51.032;5.816;2023-09-07T02:17:04;3.58;;;3.08;;
46643;SDS011;32371;51.032;5.816;2023-09-07T02:19:29;7.10;;;3.60;;
46643;SDS011;32371;51.032;5.816;2023-09-07T02:21:54;3.88;;;2.60;;
46643;SDS011;32371;51.032;5.816;2023-09-07T02:24:20;5.72;;;3.13;;
46643;SDS011;32371;51.032;5.816;2023-09-07T02:26:45;6.60;;;3.15;;
46643;SDS011;32371;51.032;5.816;2023-09-07T02:29:11;5.15;;;3.28;;
46643;SDS011;32371;51.032;5.816;2023-09-07T02:31:37;8.23;;;4.05;;
46643;SDS011;32371;51.032;5.816;2023-09-07T02:34:03;6.10;;;3.78;;
46643;SDS011;32371;51.032;5.816;2023-09-07T02:36:28;12.00;;;3.30;;
46643;SDS011;32371;51.032;5.816;2023-09-07T02:38:54;3.22;;;2.22;;
46643;SDS011;32371;51.032;5.816;2023-09-07T02:41:19;6.40;;;3.17;;
46643;SDS011;32371;51.032;5.816;2023-09-07T02:43:45;3.20;;;2.28;;
46643;SDS011;32371;51.032;5.816;2023-09-07T02:46:10;2.78;;;2.47;;
46643;SDS011;32371;51.032;5.816;2023-09-07T02:48:35;6.38;;;2.20;;
46643;SDS011;32371;51.032;5.816;2023-09-07T02:51:01;3.95;;;2.97;;
46643;SDS011;32371;51.032;5.816;2023-09-07T02:53:26;2.55;;;2.30;;
46643;SDS011;32371;51.032;5.816;2023-09-07T02:55:52;5.43;;;2.58;;
46643;SDS011;32371;51.032;5.816;2023-09-07T02:58:18;2.22;;;1.92;;
46643;SDS011;32371;51.032;5.816;2023-09-07T03:00:45;4.10;;;2.75;;
46643;SDS011;32371;51.032;5.816;2023-09-07T03:03:12;6.88;;;2.80;;
46643;SDS011;32371;51.032;5.816;2023-09-07T03:05:41;4.50;;;3.15;;
46643;SDS011;32371;51.032;5.816;2023-09-07T03:08:08;7.88;;;3.85;;
46643;SDS011;32371;51.032;5.816;2023-09-07T03:10:35;3.72;;;3.28;;
46643;SDS011;32371;51.032;5.816;2023-09-07T03:13:01;4.43;;;3.00;;
46643;SDS011;32371;51.032;5.816;2023-09-07T03:15:26;7.75;;;3.70;;
46643;SDS011;32371;51.032;5.816;2023-09-07T03:17:52;6.85;;;4.22;;
46643;SDS011;32371;51.032;5.816;2023-09-07T03:20:17;4.80;;;3.28;;
46643;SDS011;32371;51.032;5.816;2023-09-07T03:22:43;7.40;;;3.85;;
46643;SDS011;32371;51.032;5.816;2023-09-07T03:25:10;7.82;;;5.10;;
46643;SDS011;32371;51.032;5.816;2023-09-07T03:27:36;8.00;;;3.45;;
46643;SDS011;32371;51.032;5.816;2023-09-07T03:30:02;4.15;;;3.22;;
46643;SDS011;32371;51.032;5.816;2023-09-07T03:32:29;6.22;;;3.80;;
46643;SDS011;32371;51.032;5.816;2023-09-07T03:34:57;5.55;;;2.92;;
46643;SDS011;32371;51.032;5.816;2023-09-07T03:37:28;8.57;;;4.05;;
46643;SDS011;32371;51.032;5.816;2023-09-07T03:39:53;7.95;;;3.42;;
46643;SDS011;32371;51.032;5.816;2023-09-07T03:42:18;11.50;;;4.68;;
46643;SDS011;32371;51.032;5.816;2023-09-07T03:44:44;7.05;;;3.80;;
46643;SDS011;32371;51.032;5.816;2023-09-07T03:47:09;6.90;;;4.28;;
46643;SDS011;32371;51.032;5.816;2023-09-07T03:49:36;8.60;;;4.05;;
46643;SDS011;32371;51.032;5.816;2023-09-07T03:52:01;8.20;;;3.50;;
46643;SDS011;32371;51.032;5.816;2023-09-07T03:54:26;7.32;;;3.72;;
46643;SDS011;32371;51.032;5.816;2023-09-07T03:56:52;5.35;;;3.20;;
46643;SDS011;32371;51.032;5.816;2023-09-07T03:59:18;3.65;;;2.65;;
46643;SDS011;32371;51.032;5.816;2023-09-07T04:01:43;3.72;;;2.58;;
46643;SDS011;32371;51.032;5.816;2023-09-07T04:04:09;7.90;;;2.90;;
46643;SDS011;32371;51.032;5.816;2023-09-07T04:06:34;5.00;;;3.58;;
46643;SDS011;32371;51.032;5.816;2023-09-07T04:09:00;5.78;;;3.08;;
46643;SDS011;32371;51.032;5.816;2023-09-07T04:11:25;4.55;;;3.10;;
46643;SDS011;32371;51.032;5.816;2023-09-07T04:13:50;5.03;;;2.72;;
46643;SDS011;32371;51.032;5.816;2023-09-07T04:16:16;4.93;;;3.20;;
46643;SDS011;32371;51.032;5.816;2023-09-07T04:18:41;4.93;;;3.30;;
46643;SDS011;32371;51.032;5.816;2023-09-07T04:21:09;4.38;;;3.05;;
46643;SDS011;32371;51.032;5.816;2023-09-07T04:23:34;4.20;;;2.90;;
46643;SDS011;32371;51.032;5.816;2023-09-07T04:26:10;5.05;;;3.13;;
46643;SDS011;32371;51.032;5.816;2023-09-07T04:28:36;9.05;;;3.28;;
46643;SDS011;32371;51.032;5.816;2023-09-07T04:31:02;4.18;;;3.13;;
46643;SDS011;32371;51.032;5.816;2023-09-07T04:33:31;7.57;;;3.50;;
46643;SDS011;32371;51.032;5.816;2023-09-07T04:36:05;8.90;;;4.55;;
46643;SDS011;32371;51.032;5.816;2023-09-07T04:38:38;8.85;;;3.90;;
46643;SDS011;32371;51.032;5.816;2023-09-07T04:43:32;6.68;;;4.47;;
46643;SDS011;32371;51.032;5.816;2023-09-07T04:45:57;7.50;;;4.65;;
46643;SDS011;32371;51.032;5.816;2023-09-07T04:48:23;6.50;;;4.55;;
46643;SDS011;32371;51.032;5.816;2023-09-07T04:50:48;8.15;;;4.40;;
46643;SDS011;32371;51.032;5.816;2023-09-07T04:53:13;7.00;;;4.07;;
46643;SDS011;32371;51.032;5.816;2023-09-07T04:55:39;8.10;;;4.20;;
46643;SDS011;32371;51.032;5.816;2023-09-07T04:58:05;8.75;;;4.53;;
46643;SDS011;32371;51.032;5.816;2023-09-07T05:00:31;9.10;;;5.30;;
46643;SDS011;32371;51.032;5.816;2023-09-07T05:02:57;7.43;;;5.20;;
46643;SDS011;32371;51.032;5.816;2023-09-07T05:05:22;11.40;;;4.50;;
46643;SDS011;32371;51.032;5.816;2023-09-07T05:07:48;5.13;;;3.60;;
46643;SDS011;32371;51.032;5.816;2023-09-07T05:10:13;8.77;;;4.50;;
46643;SDS011;32371;51.032;5.816;2023-09-07T05:12:38;6.03;;;3.80;;
46643;SDS011;32371;51.032;5.816;2023-09-07T05:15:05;5.63;;;4.57;;
46643;SDS011;32371;51.032;5.816;2023-09-07T05:17:32;6.45;;;4.57;;
46643;SDS011;32371;51.032;5.816;2023-09-07T05:19:57;9.27;;;4.30;;
46643;SDS011;32371;51.032;5.816;2023-09-07T05:22:22;14.27;;;8.18;;
46643;SDS011;32371;51.032;5.816;2023-09-07T05:24:48;13.13;;;6.80;;
46643;SDS011;32371;51.032;5.816;2023-09-07T05:27:13;18.08;;;8.18;;
46643;SDS011;32371;51.032;5.816;2023-09-07T05:29:38;16.80;;;6.70;;
46643;SDS011;32371;51.032;5.816;2023-09-07T05:32:04;14.95;;;8.30;;
46643;SDS011;32371;51.032;5.816;2023-09-07T05:34:29;10.02;;;6.15;;
46643;SDS011;32371;51.032;5.816;2023-09-07T05:36:55;9.57;;;5.53;;
46643;SDS011;32371;51.032;5.816;2023-09-07T05:39:21;9.48;;;5.60;;
46643;SDS011;32371;51.032;5.816;2023-09-07T05:41:48;9.15;;;5.38;;
46643;SDS011;32371;51.032;5.816;2023-09-07T05:44:15;10.80;;;5.25;;
46643;SDS011;32371;51.032;5.816;2023-09-07T05:46:41;7.65;;;4.53;;
46643;SDS011;32371;51.032;5.816;2023-09-07T05:49:06;8.55;;;5.03;;
46643;SDS011;32371;51.032;5.816;2023-09-07T05:51:32;6.78;;;4.93;;
46643;SDS011;32371;51.032;5.816;2023-09-07T05:53:57;10.18;;;5.38;;
46643;SDS011;32371;51.032;5.816;2023-09-07T05:56:23;8.95;;;5.03;;
46643;SDS011;32371;51.032;5.816;2023-09-07T05:58:49;7.70;;;4.47;;
46643;SDS011;32371;51.032;5.816;2023-09-07T06:01:14;9.13;;;5.18;;
46643;SDS011;32371;51.032;5.816;2023-09-07T06:03:39;10.88;;;5.40;;
46643;SDS011;32371;51.032;5.816;2023-09-07T06:06:06;11.38;;;6.00;;
46643;SDS011;32371;51.032;5.816;2023-09-07T06:08:31;9.10;;;5.13;;
46643;SDS011;32371;51.032;5.816;2023-09-07T06:10:57;7.30;;;5.28;;
46643;SDS011;32371;51.032;5.816;2023-09-07T06:13:22;10.32;;;5.28;;
46643;SDS011;32371;51.032;5.816;2023-09-07T06:15:47;9.25;;;4.72;;
46643;SDS011;32371;51.032;5.816;2023-09-07T06:18:13;8.95;;;5.10;;
46643;SDS011;32371;51.032;5.816;2023-09-07T06:20:38;10.02;;;5.32;;
46643;SDS011;32371;51.032;5.816;2023-09-07T06:23:03;9.35;;;5.00;;
46643;SDS011;32371;51.032;5.816;2023-09-07T06:25:29;8.40;;;4.85;;
46643;SDS011;32371;51.032;5.816;2023-09-07T06:27:54;7.13;;;4.63;;
46643;SDS011;32371;51.032;5.816;2023-09-07T06:30:19;5.40;;;4.35;;
46643;SDS011;32371;51.032;5.816;2023-09-07T06:32:45;8.00;;;4.68;;
46643;SDS011;32371;51.032;5.816;2023-09-07T06:35:12;12.88;;;4.85;;
46643;SDS011;32371;51.032;5.816;2023-09-07T06:37:37;7.50;;;4.35;;
46643;SDS011;32371;51.032;5.816;2023-09-07T06:40:05;8.07;;;4.72;;
46643;SDS011;32371;51.032;5.816;2023-09-07T06:42:34;6.68;;;4.55;;
46643;SDS011;32371;51.032;5.816;2023-09-07T06:44:59;8.18;;;4.35;;
46643;SDS011;32371;51.032;5.816;2023-09-07T06:47:25;9.20;;;4.50;;
46643;SDS011;32371;51.032;5.816;2023-09-07T06:49:50;5.60;;;3.72;;
46643;SDS011;32371;51.032;5.816;2023-09-07T06:52:15;10.35;;;4.55;;
46643;SDS011;32371;51.032;5.816;2023-09-07T06:54:41;8.00;;;4.60;;
46643;SDS011;32371;51.032;5.816;2023-09-07T06:57:06;7.25;;;4.28;;
46643;SDS011;32371;51.032;5.816;2023-09-07T06:59:33;7.65;;;4.60;;
46643;SDS011;32371;51.032;5.816;2023-09-07T07:01:59;9.10;;;4.05;;
46643;SDS011;32371;51.032;5.816;2023-09-07T07:04:25;5.93;;;4.07;;
46643;SDS011;32371;51.032;5.816;2023-09-07T07:06:51;5.78;;;3.90;;
46643;SDS011;32371;51.032;5.816;2023-09-07T07:09:16;6.40;;;4.28;;
46643;SDS011;32371;51.032;5.816;2023-09-07T07:11:41;6.40;;;3.90;;
46643;SDS011;32371;51.032;5.816;2023-09-07T07:14:08;6.75;;;4.00;;
46643;SDS011;32371;51.032;5.816;2023-09-07T07:16:36;8.27;;;4.03;;
46643;SDS011;32371;51.032;5.816;2023-09-07T07:19:01;5.40;;;3.80;;
46643;SDS011;32371;51.032;5.816;2023-09-07T07:21:27;5.88;;;3.42;;
46643;SDS011;32371;51.032;5.816;2023-09-07T07:23:52;5.13;;;3.55;;
46643;SDS011;32371;51.032;5.816;2023-09-07T07:26:17;7.32;;;4.25;;
46643;SDS011;32371;51.032;5.816;2023-09-07T07:28:43;7.45;;;3.97;;
46643;SDS011;32371;51.032;5.816;2023-09-07T07:31:09;6.13;;;3.33;;
46643;SDS011;32371;51.032;5.816;2023-09-07T07:33:35;5.07;;;3.60;;
46643;SDS011;32371;51.032;5.816;2023-09-07T07:36:00;9.05;;;4.20;;
46643;SDS011;32371;51.032;5.816;2023-09-07T07:38:26;3.88;;;3.17;;
46643;SDS011;32371;51.032;5.816;2023-09-07T07:40:51;5.15;;;3.33;;
46643;SDS011;32371;51.032;5.816;2023-09-07T07:43:18;5.72;;;3.25;;
46643;SDS011;32371;51.032;5.816;2023-09-07T07:45:43;5.18;;;3.15;;
46643;SDS011;32371;51.032;5.816;2023-09-07T07:48:09;4.63;;;3.38;;
46643;SDS011;32371;51.032;5.816;2023-09-07T07:50:40;4.35;;;3.58;;
46643;SDS011;32371;51.032;5.816;2023-09-07T07:53:06;7.40;;;3.42;;
46643;SDS011;32371;51.032;5.816;2023-09-07T07:55:37;4.10;;;3.10;;
46643;SDS011;32371;51.032;5.816;2023-09-07T07:58:07;4.45;;;3.30;;
46643;SDS011;32371;51.032;5.816;2023-09-07T08:00:35;7.43;;;3.70;;
46643;SDS011;32371;51.032;5.816;2023-09-07T08:03:02;5.93;;;3.40;;
46643;SDS011;32371;51.032;5.816;2023-09-07T08:07:59;4.10;;;2.90;;
46643;SDS011;32371;51.032;5.816;2023-09-07T08:10:25;4.53;;;3.30;;
46643;SDS011;32371;51.032;5.816;2023-09-07T08:12:53;3.83;;;2.92;;
46643;SDS011;32371;51.032;5.816;2023-09-07T08:15:22;6.78;;;3.20;;
46643;SDS011;32371;51.032;5.816;2023-09-07T08:17:49;4.15;;;2.80;;
46643;SDS011;32371;51.032;5.816;2023-09-07T08:20:15;6.13;;;2.92;;
46643;SDS011;32371;51.032;5.816;2023-09-07T08:22:41;7.22;;;3.50;;
46643;SDS011;32371;51.032;5.816;2023-09-07T08:25:10;4.13;;;2.75;;
46643;SDS011;32371;51.032;5.816;2023-09-07T08:27:36;4.35;;;2.58;;
46643;SDS011;32371;51.032;5.816;2023-09-07T08:30:02;3.65;;;2.70;;
46643;SDS011;32371;51.032;5.816;2023-09-07T08:32:28;3.83;;;2.65;;
46643;SDS011;32371;51.032;5.816;2023-09-07T08:34:55;6.22;;;2.17;;
46643;SDS011;32371;51.032;5.816;2023-09-07T08:37:21;5.35;;;3.20;;
46643;SDS011;32371;51.032;5.816;2023-09-07T08:39:47;3.67;;;2.33;;
46643;SDS011;32371;51.032;5.816;2023-09-07T08:42:12;2.95;;;2.30;;
46643;SDS011;32371;51.032;5.816;2023-09-07T08:44:37;2.80;;;2.08;;
46643;SDS011;32371;51.032;5.816;2023-09-07T08:47:05;5.13;;;2.28;;
46643;SDS011;32371;51.032;5.816;2023-09-07T08:49:30;4.53;;;2.20;;
46643;SDS011;32371;51.032;5.816;2023-09-07T08:51:58;3.65;;;2.45;;
46643;SDS011;32371;51.032;5.816;2023-09-07T08:54:24;8.90;;;2.45;;
46643;SDS011;32371;51.032;5.816;2023-09-07T08:56:50;3.38;;;2.25;;
46643;SDS011;32371;51.032;5.816;2023-09-07T08:59:16;9.90;;;2.80;;
46643;SDS011;32371;51.032;5.816;2023-09-07T09:01:41;4.97;;;2.60;;
46643;SDS011;32371;51.032;5.816;2023-09-07T09:04:07;3.53;;;3.13;;
46643;SDS011;32371;51.032;5.816;2023-09-07T09:06:32;2.63;;;2.00;;
46643;SDS011;32371;51.032;5.816;2023-09-07T09:08:58;5.15;;;2.20;;
46643;SDS011;32371;51.032;5.816;2023-09-07T09:11:24;6.88;;;2.58;;
46643;SDS011;32371;51.032;5.816;2023-09-07T09:13:51;10.15;;;2.40;;
46643;SDS011;32371;51.032;5.816;2023-09-07T09:16:17;5.38;;;2.30;;
46643;SDS011;32371;51.032;5.816;2023-09-07T09:18:58;2.90;;;1.83;;
46643;SDS011;32371;51.032;5.816;2023-09-07T09:21:25;2.40;;;1.98;;
46643;SDS011;32371;51.032;5.816;2023-09-07T09:23:52;6.38;;;2.40;;
46643;SDS011;32371;51.032;5.816;2023-09-07T09:26:18;4.38;;;2.22;;
46643;SDS011;32371;51.032;5.816;2023-09-07T09:28:44;2.60;;;2.20;;
46643;SDS011;32371;51.032;5.816;2023-09-07T09:31:10;3.65;;;2.70;;
46643;SDS011;32371;51.032;5.816;2023-09-07T09:33:37;4.13;;;2.45;;
46643;SDS011;32371;51.032;5.816;2023-09-07T09:36:07;4.75;;;2.20;;
46643;SDS011;32371;51.032;5.816;2023-09-07T09:38:33;2.33;;;1.90;;
46643;SDS011;32371;51.032;5.816;2023-09-07T09:43:50;4.15;;;2.40;;
46643;SDS011;32371;51.032;5.816;2023-09-07T09:46:16;3.28;;;1.88;;
46643;SDS011;32371;51.032;5.816;2023-09-07T09:48:42;3.50;;;2.00;;
46643;SDS011;32371;51.032;5.816;2023-09-07T09:51:09;4.55;;;2.10;;
46643;SDS011;32371;51.032;5.816;2023-09-07T09:53:36;5.00;;;2.28;;
46643;SDS011;32371;51.032;5.816;2023-09-07T09:56:01;3.70;;;2.40;;
46643;SDS011;32371;51.032;5.816;2023-09-07T09:58:27;6.53;;;2.53;;
46643;SDS011;32371;51.032;5.816;2023-09-07T10:00:54;2.88;;;2.35;;
46643;SDS011;32371;51.032;5.816;2023-09-07T10:03:24;4.03;;;2.50;;
46643;SDS011;32371;51.032;5.816;2023-09-07T10:05:52;3.67;;;2.50;;
46643;SDS011;32371;51.032;5.816;2023-09-07T10:08:18;2.70;;;2.50;;
46643;SDS011;32371;51.032;5.816;2023-09-07T10:10:48;2.33;;;2.13;;
46643;SDS011;32371;51.032;5.816;2023-09-07T10:13:15;4.47;;;2.28;;
46643;SDS011;32371;51.032;5.816;2023-09-07T10:15:41;4.35;;;2.38;;
46643;SDS011;32371;51.032;5.816;2023-09-07T10:23:12;2.85;;;2.05;;
46643;SDS011;32371;51.032;5.816;2023-09-07T10:25:38;4.68;;;1.92;;
46643;SDS011;32371;51.032;5.816;2023-09-07T10:28:03;2.40;;;2.17;;
46643;SDS011;32371;51.032;5.816;2023-09-07T10:30:29;5.07;;;2.63;;
46643;SDS011;32371;51.032;5.816;2023-09-07T10:32:57;4.05;;;2.38;;
46643;SDS011;32371;51.032;5.816;2023-09-07T10:35:23;4.47;;;1.98;;
46643;SDS011;32371;51.032;5.816;2023-09-07T10:37:50;4.57;;;2.20;;
46643;SDS011;32371;51.032;5.816;2023-09-07T10:40:23;4.63;;;2.60;;
46643;SDS011;32371;51.032;5.816;2023-09-07T10:42:48;4.53;;;2.60;;
46643;SDS011;32371;51.032;5.816;2023-09-07T10:45:15;4.07;;;2.53;;
46643;SDS011;32371;51.032;5.816;2023-09-07T10:47:45;3.33;;;2.47;;
46643;SDS011;32371;51.032;5.816;2023-09-07T10:50:14;6.28;;;2.30;;
46643;SDS011;32371;51.032;5.816;2023-09-07T10:52:40;3.28;;;2.50;;
46643;SDS011;32371;51.032;5.816;2023-09-07T10:55:06;2.88;;;2.65;;
46643;SDS011;32371;51.032;5.816;2023-09-07T10:57:40;4.80;;;2.45;;
46643;SDS011;32371;51.032;5.816;2023-09-07T11:00:06;4.82;;;2.08;;
46643;SDS011;32371;51.032;5.816;2023-09-07T11:02:36;3.90;;;2.20;;
46643;SDS011;32371;51.032;5.816;2023-09-07T11:05:02;2.50;;;2.30;;
46643;SDS011;32371;51.032;5.816;2023-09-07T11:07:27;2.70;;;2.50;;
46643;SDS011;32371;51.032;5.816;2023-09-07T11:09:53;2.15;;;2.05;;
46643;SDS011;32371;51.032;5.816;2023-09-07T11:12:19;7.70;;;2.60;;
46643;SDS011;32371;51.032;5.816;2023-09-07T11:14:50;2.20;;;2.03;;
46643;SDS011;32371;51.032;5.816;2023-09-07T11:17:16;3.78;;;2.00;;
46643;SDS011;32371;51.032;5.816;2023-09-07T11:19:42;2.88;;;1.85;;
46643;SDS011;32371;51.032;5.816;2023-09-07T11:22:11;6.32;;;2.67;;
46643;SDS011;32371;51.032;5.816;2023-09-07T11:24:36;2.45;;;1.88;;
46643;SDS011;32371;51.032;5.816;2023-09-07T11:27:02;3.50;;;2.33;;
46643;SDS011;32371;51.032;5.816;2023-09-07T11:29:27;3.20;;;2.20;;
46643;SDS011;32371;51.032;5.816;2023-09-07T11:32:05;3.08;;;2.55;;
46643;SDS011;32371;51.032;5.816;2023-09-07T11:34:33;3.63;;;2.25;;
46643;SDS011;32371;51.032;5.816;2023-09-07T11:36:59;2.17;;;1.98;;
46643;SDS011;32371;51.032;5.816;2023-09-07T11:39:27;3.25;;;2.40;;
46643;SDS011;32371;51.032;5.816;2023-09-07T11:41:53;4.93;;;1.90;;
46643;SDS011;32371;51.032;5.816;2023-09-07T11:44:18;4.38;;;2.08;;
46643;SDS011;32371;51.032;5.816;2023-09-07T11:46:43;4.50;;;2.88;;
46643;SDS011;32371;51.032;5.816;2023-09-07T11:49:09;3.92;;;2.40;;
46643;SDS011;32371;51.032;5.816;2023-09-07T11:51:34;6.05;;;2.42;;
46643;SDS011;32371;51.032;5.816;2023-09-07T11:54:01;2.97;;;2.08;;
46643;SDS011;32371;51.032;5.816;2023-09-07T11:56:27;2.97;;;2.30;;
46643;SDS011;32371;51.032;5.816;2023-09-07T11:58:53;4.07;;;2.20;;
46643;SDS011;32371;51.032;5.816;2023-09-07T12:01:18;4.07;;;2.20;;
46643;SDS011;32371;51.032;5.816;2023-09-07T12:03:43;3.53;;;2.15;;
46643;SDS011;32371;51.032;5.816;2023-09-07T12:06:09;2.30;;;2.10;;
46643;SDS011;32371;51.032;5.816;2023-09-07T12:08:36;4.45;;;2.53;;
46643;SDS011;32371;51.032;5.816;2023-09-07T12:11:01;5.05;;;2.40;;
46643;SDS011;32371;51.032;5.816;2023-09-07T12:13:27;4.32;;;2.90;;
46643;SDS011;32371;51.032;5.816;2023-09-07T12:15:52;3.75;;;2.35;;
46643;SDS011;32371;51.032;5.816;2023-09-07T12:18:17;4.85;;;2.35;;
46643;SDS011;32371;51.032;5.816;2023-09-07T12:20:43;4.30;;;2.25;;
46643;SDS011;32371;51.032;5.816;2023-09-07T12:23:09;3.50;;;2.60;;
46643;SDS011;32371;51.032;5.816;2023-09-07T12:25:35;3.63;;;2.10;;
46643;SDS011;32371;51.032;5.816;2023-09-07T12:28:01;2.63;;;1.75;;
46643;SDS011;32371;51.032;5.816;2023-09-07T12:30:27;4.32;;;2.08;;
46643;SDS011;32371;51.032;5.816;2023-09-07T12:32:53;3.92;;;2.42;;
46643;SDS011;32371;51.032;5.816;2023-09-07T12:35:19;2.38;;;1.90;;
46643;SDS011;32371;51.032;5.816;2023-09-07T12:37:45;2.00;;;1.77;;
46643;SDS011;32371;51.032;5.816;2023-09-07T12:40:11;6.25;;;3.47;;
46643;SDS011;32371;51.032;5.816;2023-09-07T12:42:40;2.97;;;2.08;;
46643;SDS011;32371;51.032;5.816;2023-09-07T12:45:07;3.00;;;2.58;;
46643;SDS011;32371;51.032;5.816;2023-09-07T12:47:34;3.53;;;2.40;;
46643;SDS011;32371;51.032;5.816;2023-09-07T12:49:59;4.90;;;2.00;;
46643;SDS011;32371;51.032;5.816;2023-09-07T12:52:25;2.15;;;1.95;;
46643;SDS011;32371;51.032;5.816;2023-09-07T12:54:50;2.90;;;2.00;;
46643;SDS011;32371;51.032;5.816;2023-09-07T12:57:15;3.20;;;2.00;;
46643;SDS011;32371;51.032;5.816;2023-09-07T12:59:41;2.10;;;1.90;;
46643;SDS011;32371;51.032;5.816;2023-09-07T13:02:06;5.85;;;2.60;;
46643;SDS011;32371;51.032;5.816;2023-09-07T13:04:31;2.88;;;2.13;;
46643;SDS011;32371;51.032;5.816;2023-09-07T13:06:57;3.90;;;2.15;;
46643;SDS011;32371;51.032;5.816;2023-09-07T13:09:22;2.58;;;1.85;;
46643;SDS011;32371;51.032;5.816;2023-09-07T13:11:47;4.80;;;2.67;;
46643;SDS011;32371;51.032;5.816;2023-09-07T13:14:13;2.83;;;2.05;;
46643;SDS011;32371;51.032;5.816;2023-09-07T13:16:38;2.97;;;1.75;;
46643;SDS011;32371;51.032;5.816;2023-09-07T13:19:04;2.15;;;1.80;;
46643;SDS011;32371;51.032;5.816;2023-09-07T13:21:31;6.60;;;2.15;;
46643;SDS011;32371;51.032;5.816;2023-09-07T13:23:57;3.83;;;2.45;;
46643;SDS011;32371;51.032;5.816;2023-09-07T13:26:22;4.38;;;2.15;;
46643;SDS011;32371;51.032;5.816;2023-09-07T13:28:48;3.33;;;2.28;;
46643;SDS011;32371;51.032;5.816;2023-09-07T13:31:13;2.65;;;1.85;;
46643;SDS011;32371;51.032;5.816;2023-09-07T13:33:39;2.15;;;1.98;;
46643;SDS011;32371;51.032;5.816;2023-09-07T13:36:04;4.85;;;2.65;;
46643;SDS011;32371;51.032;5.816;2023-09-07T13:38:29;4.45;;;1.90;;
46643;SDS011;32371;51.032;5.816;2023-09-07T13:40:55;5.18;;;2.20;;
46643;SDS011;32371;51.032;5.816;2023-09-07T13:43:20;5.82;;;1.70;;
46643;SDS011;32371;51.032;5.816;2023-09-07T13:45:46;4.68;;;2.42;;
46643;SDS011;32371;51.032;5.816;2023-09-07T13:48:12;2.83;;;2.03;;
46643;SDS011;32371;51.032;5.816;2023-09-07T13:50:38;5.13;;;1.75;;
46643;SDS011;32371;51.032;5.816;2023-09-07T13:53:04;2.17;;;1.88;;
46643;SDS011;32371;51.032;5.816;2023-09-07T13:55:30;6.53;;;2.25;;
46643;SDS011;32371;51.032;5.816;2023-09-07T13:57:55;3.03;;;2.00;;
46643;SDS011;32371;51.032;5.816;2023-09-07T14:00:20;3.15;;;2.28;;
46643;SDS011;32371;51.032;5.816;2023-09-07T14:02:46;2.40;;;2.17;;
46643;SDS011;32371;51.032;5.816;2023-09-07T14:05:12;3.63;;;2.05;;
46643;SDS011;32371;51.032;5.816;2023-09-07T14:07:37;5.45;;;2.28;;
46643;SDS011;32371;51.032;5.816;2023-09-07T14:10:02;6.63;;;2.28;;
46643;SDS011;32371;51.032;5.816;2023-09-07T14:12:28;9.82;;;2.50;;
46643;SDS011;32371;51.032;5.816;2023-09-07T14:14:53;2.50;;;1.90;;
46643;SDS011;32371;51.032;5.816;2023-09-07T14:17:19;2.90;;;2.03;;
46643;SDS011;32371;51.032;5.816;2023-09-07T14:19:44;4.75;;;2.25;;
46643;SDS011;32371;51.032;5.816;2023-09-07T14:22:10;2.92;;;2.08;;
46643;SDS011;32371;51.032;5.816;2023-09-07T14:24:38;3.83;;;2.35;;
46643;SDS011;32371;51.032;5.816;2023-09-07T14:27:04;2.55;;;1.80;;
46643;SDS011;32371;51.032;5.816;2023-09-07T14:29:29;1.90;;;1.80;;
46643;SDS011;32371;51.032;5.816;2023-09-07T14:31:55;3.22;;;1.95;;
46643;SDS011;32371;51.032;5.816;2023-09-07T14:34:20;4.30;;;2.45;;
46643;SDS011;32371;51.032;5.816;2023-09-07T14:36:45;4.18;;;2.28;;
46643;SDS011;32371;51.032;5.816;2023-09-07T14:39:11;5.80;;;2.10;;
46643;SDS011;32371;51.032;5.816;2023-09-07T14:41:37;4.57;;;2.20;;
46643;SDS011;32371;51.032;5.816;2023-09-07T14:44:04;5.43;;;2.42;;
46643;SDS011;32371;51.032;5.816;2023-09-07T14:46:29;4.60;;;2.70;;
46643;SDS011;32371;51.032;5.816;2023-09-07T14:48:55;6.53;;;2.67;;
46643;SDS011;32371;51.032;5.816;2023-09-07T14:51:21;2.38;;;2.08;;
46643;SDS011;32371;51.032;5.816;2023-09-07T14:53:47;3.80;;;2.10;;